Time;durP1;ratioP1;P1;durP2;ratioP2;P2;SDS_P1;SDS_P2;PMS_P1;PMS_P2;Temp;Humidity;BMP_temperature;BMP_pressure;BME280_temperature;BME280_humidity;BME280_pressure;Samples;Min_cycle;Max_cycle;Signal;HPM_P1;HPM_P2
2022/10/28 00:01:59;;;;;;;24.17;12.73;;;;;;;13.86;100.00;101671.63;5004914;28;20288;-71
2022/10/28 00:04:24;;;;;;;28.85;13.52;;;;;;;13.84;100.00;101670.16;5008714;28;20284;-74
2022/10/28 00:06:49;;;;;;;26.75;14.13;;;;;;;13.84;100.00;101673.78;5008294;28;20046;-73
2022/10/28 00:09:15;;;;;;;21.88;12.75;;;;;;;13.79;100.00;101668.13;5008339;28;20060;-72
2022/10/28 00:11:40;;;;;;;23.77;13.68;;;;;;;13.81;100.00;101667.88;5016632;28;20056;-73
2022/10/28 00:14:06;;;;;;;26.13;13.52;;;;;;;13.75;100.00;101664.97;5005305;28;20396;-67
2022/10/28 00:16:33;;;;;;;21.15;12.85;;;;;;;13.73;100.00;101666.25;5007467;28;20073;-73
2022/10/28 00:19:00;;;;;;;27.63;14.18;;;;;;;13.69;100.00;101665.06;5007264;28;20034;-71
2022/10/28 00:21:28;;;;;;;25.00;15.35;;;;;;;13.72;100.00;101661.81;5005798;28;20030;-73
2022/10/28 00:23:53;;;;;;;27.00;14.23;;;;;;;13.69;100.00;101668.66;5006913;28;20069;-72
2022/10/28 00:26:22;;;;;;;24.70;15.05;;;;;;;13.63;100.00;101666.81;5007142;28;20620;-70
2022/10/28 00:28:53;;;;;;;27.77;13.73;;;;;;;13.59;100.00;101665.59;5006616;28;20496;-69
2022/10/28 00:31:20;;;;;;;28.58;14.60;;;;;;;13.60;100.00;101664.53;5006262;28;20056;-67
2022/10/28 00:33:46;;;;;;;27.63;14.52;;;;;;;13.58;100.00;101663.88;5007848;28;20053;-73
2022/10/28 00:36:15;;;;;;;27.58;17.08;;;;;;;13.58;100.00;101669.41;5007907;28;20381;-74
2022/10/28 00:38:42;;;;;;;29.63;16.55;;;;;;;13.61;100.00;101677.25;5006434;28;20038;-74
2022/10/28 00:41:09;;;;;;;29.43;16.70;;;;;;;13.61;100.00;101668.13;5012359;28;20033;-71
2022/10/28 00:43:42;;;;;;;30.60;16.30;;;;;;;13.62;100.00;101658.75;5006465;28;20049;-72
2022/10/28 00:46:34;;;;;;;30.35;17.77;;;;;;;13.60;100.00;101663.69;5006269;28;20030;-72
2022/10/28 00:49:13;;;;;;;28.38;17.23;;;;;;;13.59;100.00;101656.47;5004835;28;20049;-74
2022/10/28 00:51:39;;;;;;;30.17;16.42;;;;;;;13.55;100.00;101647.81;5006533;28;20041;-70
2022/10/28 00:54:06;;;;;;;26.42;15.88;;;;;;;13.55;100.00;101660.78;5014878;28;20633;-75
2022/10/28 00:56:41;;;;;;;27.80;15.60;;;;;;;13.48;100.00;101642.38;5007643;28;20045;-70
2022/10/28 00:59:12;;;;;;;29.48;16.83;;;;;;;13.46;100.00;101646.44;5006318;28;20346;-71
2022/10/28 01:01:37;;;;;;;29.77;16.70;;;;;;;13.42;100.00;101635.00;5004750;28;20439;-71
2022/10/28 01:04:03;;;;;;;28.23;16.40;;;;;;;13.42;100.00;101632.25;5007175;28;20069;-71
2022/10/28 01:06:29;;;;;;;28.92;16.35;;;;;;;13.40;100.00;101634.41;5007193;28;20089;-75
2022/10/28 01:08:54;;;;;;;28.55;17.10;;;;;;;13.37;100.00;101623.81;5006831;28;20030;-70
2022/10/28 01:11:39;;;;;;;27.27;17.17;;;;;;;13.38;100.00;101624.66;5016043;28;20570;-74
2022/10/28 01:14:16;;;;;;;32.28;15.57;;;;;;;13.28;100.00;101622.47;5021452;28;20076;-70
2022/10/28 01:16:57;;;;;;;27.88;15.85;;;;;;;13.30;100.00;101617.53;5006844;28;20700;-74
2022/10/28 01:19:30;;;;;;;28.70;16.20;;;;;;;13.27;100.00;101618.00;5006649;28;20356;-71
2022/10/28 01:22:07;;;;;;;26.77;15.57;;;;;;;13.24;100.00;101616.56;5008197;28;20118;-73
2022/10/28 01:24:47;;;;;;;29.50;15.98;;;;;;;13.27;100.00;101619.91;5005931;28;20037;-70
2022/10/28 01:27:21;;;;;;;29.67;16.30;;;;;;;13.22;100.00;101620.59;5006215;28;20026;-73
2022/10/28 01:30:04;;;;;;;26.70;17.27;;;;;;;13.25;100.00;101622.91;5005793;28;20029;-73
2022/10/28 01:32:51;;;;;;;28.00;15.20;;;;;;;13.24;100.00;101624.81;4995178;28;20049;-68
2022/10/28 01:35:40;;;;;;;29.85;17.73;;;;;;;13.27;100.00;101611.63;5007421;28;20105;-70
2022/10/28 01:38:13;;;;;;;25.77;16.40;;;;;;;13.26;100.00;101615.47;5006437;28;20037;-70
2022/10/28 01:40:58;;;;;;;29.52;16.98;;;;;;;13.28;100.00;101611.44;5010628;28;20041;-72
2022/10/28 01:43:31;;;;;;;29.70;17.42;;;;;;;13.25;100.00;101614.63;4979985;28;20046;-73
2022/10/28 01:46:10;;;;;;;28.30;16.85;;;;;;;13.19;100.00;101610.00;5006890;28;20026;-72
2022/10/28 01:48:43;;;;;;;31.83;17.10;;;;;;;13.14;100.00;101612.59;5002982;28;20383;-71
2022/10/28 01:51:41;;;;;;;28.02;15.35;;;;;;;13.14;100.00;101607.94;5018268;28;20033;-72
2022/10/28 01:54:08;;;;;;;30.88;16.80;;;;;;;13.06;100.00;101610.13;4997995;28;20113;-72
2022/10/28 01:56:39;;;;;;;36.38;16.42;;;;;;;13.01;100.00;101610.81;5006665;28;20421;-67
2022/10/28 01:59:08;;;;;;;30.23;15.88;;;;;;;12.99;100.00;101616.56;5005569;28;20042;-66
2022/10/28 02:01:34;;;;;;;30.23;16.55;;;;;;;12.95;100.00;101607.06;5006481;28;20036;-74
2022/10/28 02:04:00;;;;;;;28.95;16.52;;;;;;;12.95;100.00;101604.31;5005755;28;20041;-71
2022/10/28 02:06:28;;;;;;;28.10;16.23;;;;;;;12.94;100.00;101608.13;5007031;28;20050;-74
2022/10/28 02:09:27;;;;;;;23.42;14.77;;;;;;;12.90;100.00;101606.91;5011145;28;20088;-69
2022/10/28 02:12:10;;;;;;;25.65;14.18;;;;;;;12.83;100.00;101608.06;5005814;28;20044;-74
2022/10/28 02:14:49;;;;;;;25.27;13.70;;;;;;;12.76;100.00;101607.25;5004790;28;20032;-74
2022/10/28 02:17:30;;;;;;;25.38;15.05;;;;;;;12.71;100.00;101607.94;5002170;28;20053;-71
2022/10/28 02:20:22;;;;;;;30.80;15.75;;;;;;;12.72;100.00;101602.22;5001102;28;20044;-68
2022/10/28 02:22:53;;;;;;;24.10;15.20;;;;;;;12.70;100.00;101606.25;5005484;28;20025;-71
2022/10/28 02:25:24;;;;;;;27.80;15.13;;;;;;;12.68;100.00;101609.25;5006133;28;20385;-67
2022/10/28 02:28:06;;;;;;;31.13;15.88;;;;;;;12.68;100.00;101606.50;5003463;28;20030;-71
2022/10/28 02:30:41;;;;;;;29.70;16.70;;;;;;;12.65;100.00;101614.34;5009569;28;20041;-74
2022/10/28 02:33:11;;;;;;;28.55;16.70;;;;;;;12.67;100.00;101612.22;5004771;28;20815;-74
2022/10/28 02:35:42;;;;;;;26.48;15.82;;;;;;;12.67;100.00;101607.56;4992567;28;20022;-73
2022/10/28 02:38:16;;;;;;;26.02;15.02;;;;;;;12.67;100.00;101601.19;5004796;28;20028;-73
2022/10/28 02:40:46;;;;;;;24.23;15.40;;;;;;;12.60;100.00;101601.25;5005643;28;20479;-71
2022/10/28 02:43:16;;;;;;;27.10;15.57;;;;;;;12.60;100.00;101600.41;5006186;28;20029;-67
2022/10/28 02:45:46;;;;;;;29.75;16.17;;;;;;;12.61;100.00;101596.59;5007841;28;20116;-73
2022/10/28 02:48:30;;;;;;;28.88;17.30;;;;;;;12.58;100.00;101591.53;5005617;28;20032;-73
2022/10/28 02:51:12;;;;;;;28.60;15.75;;;;;;;12.60;100.00;101598.50;4985734;28;20030;-71
2022/10/28 02:54:13;;;;;;;24.58;15.05;;;;;;;12.60;100.00;101595.75;4999276;28;20041;-73
2022/10/28 02:56:50;;;;;;;29.80;17.00;;;;;;;12.60;100.00;101595.75;5009743;28;20034;-73
2022/10/28 02:59:15;;;;;;;28.20;16.48;;;;;;;12.58;100.00;101591.53;5009266;28;20030;-71
2022/10/28 03:01:41;;;;;;;28.55;14.90;;;;;;;12.55;100.00;101586.47;5008799;28;20071;-73
2022/10/28 03:04:06;;;;;;;29.10;15.75;;;;;;;12.58;100.00;101597.06;5008271;28;20021;-71
2022/10/28 03:06:31;;;;;;;30.25;16.10;;;;;;;12.54;100.00;101585.63;5015108;28;20060;-71
2022/10/28 03:08:57;;;;;;;29.15;16.88;;;;;;;12.53;100.00;101589.47;5027842;28;20034;-73
2022/10/28 03:11:22;;;;;;;26.73;16.70;;;;;;;12.52;100.00;101589.66;5021862;28;20045;-70
2022/10/28 03:13:47;;;;;;;26.50;15.43;;;;;;;12.45;100.00;101579.56;5008270;28;20030;-72
2022/10/28 03:16:13;;;;;;;28.98;15.90;;;;;;;12.45;100.00;101585.06;5006806;28;20428;-73
2022/10/28 03:18:38;;;;;;;26.55;15.65;;;;;;;12.40;100.00;101589.56;5005615;28;20033;-71
2022/10/28 03:21:03;;;;;;;27.33;15.17;;;;;;;12.41;100.00;101585.72;5006420;28;20123;-68
2022/10/28 03:23:28;;;;;;;25.70;16.05;;;;;;;12.36;100.00;101583.66;5007565;28;20284;-73
2022/10/28 03:25:54;;;;;;;27.05;15.20;;;;;;;12.38;100.00;101586.19;5008310;28;20026;-67
2022/10/28 03:28:19;;;;;;;26.52;16.05;;;;;;;12.38;100.00;101584.28;5007933;28;20037;-73
2022/10/28 03:30:44;;;;;;;27.05;14.60;;;;;;;12.36;100.00;101583.66;5008425;28;20147;-72
2022/10/28 03:33:09;;;;;;;24.17;14.27;;;;;;;12.35;100.00;101575.63;5008241;28;20045;-73
2022/10/28 03:35:35;;;;;;;30.10;15.85;;;;;;;12.35;100.00;101578.38;5009289;28;20275;-70
2022/10/28 03:38:00;;;;;;;27.70;14.80;;;;;;;12.31;100.00;101583.47;5008207;28;20032;-70
2022/10/28 03:40:25;;;;;;;27.17;15.10;;;;;;;12.32;100.00;101587.94;5009299;28;20040;-73
2022/10/28 03:42:51;;;;;;;25.80;14.30;;;;;;;12.33;100.00;101581.38;5006533;28;20021;-67
2022/10/28 03:45:16;;;;;;;28.35;14.82;;;;;;;12.29;100.00;101573.75;5022249;28;20091;-71
2022/10/28 03:47:41;;;;;;;26.63;15.52;;;;;;;12.29;100.00;101576.53;5028708;28;20032;-73
2022/10/28 03:50:07;;;;;;;26.10;15.27;;;;;;;12.28;100.00;101575.69;5007392;28;20388;-71
2022/10/28 03:52:32;;;;;;;27.00;15.20;;;;;;;12.28;100.00;101581.19;5005941;28;20061;-73
2022/10/28 03:54:58;;;;;;;25.88;15.25;;;;;;;12.28;100.00;101574.84;5007714;28;20061;-73
2022/10/28 03:57:23;;;;;;;24.35;14.60;;;;;;;12.28;100.00;101575.69;5007586;28;20038;-69
2022/10/28 03:59:48;;;;;;;25.50;13.98;;;;;;;12.31;100.00;101571.63;5008576;28;20032;-68
2022/10/28 04:02:14;;;;;;;27.65;15.05;;;;;;;12.27;100.00;101575.91;5015639;28;20045;-73
2022/10/28 04:04:40;;;;;;;24.50;14.18;;;;;;;12.26;100.00;101566.78;5019505;28;20030;-69
2022/10/28 04:07:05;;;;;;;27.45;14.48;;;;;;;12.26;100.00;101572.28;5006528;28;20117;-72
2022/10/28 04:09:30;;;;;;;25.63;14.45;;;;;;;12.24;100.00;101576.34;5008043;28;20117;-71
2022/10/28 04:11:55;;;;;;;26.77;13.25;;;;;;;12.22;100.00;101576.59;5006865;28;20031;-68
2022/10/28 04:14:20;;;;;;;22.20;14.25;;;;;;;12.20;100.00;101578.69;5007119;28;20709;-72
2022/10/28 04:16:46;;;;;;;24.10;14.00;;;;;;;12.20;100.00;101571.28;5007443;28;20029;-70
2022/10/28 04:19:11;;;;;;;24.60;13.93;;;;;;;12.20;100.00;101574.03;5006547;28;20033;-72
2022/10/28 04:21:37;;;;;;;26.90;14.30;;;;;;;12.18;100.00;101570.66;5013413;28;20396;-71
2022/10/28 04:24:03;;;;;;;26.75;13.55;;;;;;;12.18;100.00;101578.09;5018900;28;20029;-73
2022/10/28 04:26:30;;;;;;;24.83;13.32;;;;;;;12.17;100.00;101591.03;5006850;28;20026;-72
2022/10/28 04:28:56;;;;;;;28.07;14.33;;;;;;;12.16;100.00;101586.56;5005804;28;20385;-72
2022/10/28 04:31:21;;;;;;;28.23;15.35;;;;;;;12.15;100.00;101582.13;5007180;28;20040;-72
2022/10/28 04:33:46;;;;;;;22.47;13.63;;;;;;;12.14;100.00;101574.94;5007808;28;20030;-70
2022/10/28 04:36:11;;;;;;;24.10;13.43;;;;;;;12.10;100.00;101573.69;5007174;28;20645;-71
2022/10/28 04:38:37;;;;;;;22.10;13.82;;;;;;;12.10;100.00;101584.69;5005636;28;20120;-72
2022/10/28 04:41:02;;;;;;;23.50;13.80;;;;;;;12.07;100.00;101581.56;5015774;28;20043;-72
2022/10/28 04:43:28;;;;;;;26.75;14.00;;;;;;;12.06;100.00;101585.38;5011101;28;20034;-70
2022/10/28 04:45:53;;;;;;;28.00;13.50;;;;;;;12.05;100.00;101583.69;5015015;28;20034;-71
2022/10/28 04:48:19;;;;;;;24.52;13.68;;;;;;;12.05;100.00;101590.03;5026799;28;20067;-67
2022/10/28 04:50:44;;;;;;;25.00;12.93;;;;;;;12.01;100.00;101585.19;5007696;28;20022;-68
2022/10/28 04:53:10;;;;;;;22.67;14.30;;;;;;;12.02;100.00;101585.00;5006416;28;20060;-70
2022/10/28 04:55:35;;;;;;;26.73;14.65;;;;;;;12.01;100.00;101585.19;5006640;28;20485;-68
2022/10/28 04:58:01;;;;;;;27.52;14.30;;;;;;;11.97;100.00;101578.47;5006406;28;20044;-71
2022/10/28 05:00:27;;;;;;;23.65;13.07;;;;;;;11.95;100.00;101579.50;5007782;28;20030;-72
2022/10/28 05:02:53;;;;;;;26.02;13.85;;;;;;;11.91;100.00;101575.53;5026866;28;20024;-73
2022/10/28 05:05:18;;;;;;;23.95;13.50;;;;;;;11.91;100.00;101577.41;5014147;28;20045;-67
2022/10/28 05:07:44;;;;;;;19.45;12.40;;;;;;;11.87;100.00;101581.69;5005042;28;20034;-72
2022/10/28 05:10:11;;;;;;;20.88;13.52;;;;;;;11.85;100.00;101578.31;5007279;28;20499;-71
2022/10/28 05:12:39;;;;;;;24.98;13.13;;;;;;;11.81;100.00;101572.38;5006470;28;20053;-73
2022/10/28 05:15:05;;;;;;;26.38;13.90;;;;;;;11.81;100.00;101572.38;5007169;28;20030;-69
2022/10/28 05:17:31;;;;;;;23.88;13.25;;;;;;;11.79;100.00;101577.25;5005750;28;20394;-72
2022/10/28 05:19:56;;;;;;;24.65;12.45;;;;;;;11.80;100.00;101578.94;5006287;28;20041;-73
2022/10/28 05:22:21;;;;;;;23.20;12.18;;;;;;;11.79;100.00;101573.66;5005998;28;20045;-71
2022/10/28 05:24:46;;;;;;;23.25;12.43;;;;;;;11.75;100.00;101581.50;5005384;28;20048;-72
2022/10/28 05:27:12;;;;;;;25.50;13.02;;;;;;;11.75;100.00;101578.75;5006083;28;20030;-71
2022/10/28 05:29:37;;;;;;;27.98;14.00;;;;;;;11.72;100.00;101570.97;5005709;28;20037;-72
2022/10/28 05:32:02;;;;;;;25.88;13.52;;;;;;;11.70;100.00;101568.41;5006727;28;20029;-68
2022/10/28 05:34:28;;;;;;;25.10;11.88;;;;;;;11.69;100.00;101565.88;5008436;28;20060;-71
2022/10/28 05:36:53;;;;;;;22.02;11.85;;;;;;;11.64;100.00;101562.94;5017640;28;20116;-73
2022/10/28 05:39:18;;;;;;;28.17;12.80;;;;;;;11.69;100.00;101561.22;5005926;28;20385;-67
2022/10/28 05:41:43;;;;;;;24.35;12.10;;;;;;;11.68;100.00;101569.72;5007002;28;20036;-70
2022/10/28 05:44:09;;;;;;;27.30;12.85;;;;;;;11.65;100.00;101559.97;5004665;28;20496;-70
2022/10/28 05:46:34;;;;;;;28.48;13.02;;;;;;;11.69;100.00;101560.38;5015831;28;20060;-69
2022/10/28 05:48:59;;;;;;;23.25;12.73;;;;;;;11.70;100.00;101573.06;5008030;28;20041;-69
2022/10/28 05:51:24;;;;;;;22.92;12.10;;;;;;;11.68;100.00;101569.72;5005574;28;20408;-74
2022/10/28 05:53:50;;;;;;;24.48;12.13;;;;;;;11.66;100.00;101566.34;5002012;28;20034;-71
2022/10/28 05:56:16;;;;;;;24.80;12.35;;;;;;;11.65;100.00;101570.13;5005164;28;20584;-67
2022/10/28 05:58:42;;;;;;;30.00;12.55;;;;;;;11.65;100.00;101559.13;5003269;28;20028;-73
2022/10/28 06:01:07;;;;;;;21.33;11.52;;;;;;;11.60;100.00;101559.78;5005793;28;20033;-71
2022/10/28 06:03:33;;;;;;;29.75;12.57;;;;;;;11.60;100.00;101565.28;5023196;28;20037;-73
2022/10/28 06:05:58;;;;;;;23.02;11.43;;;;;;;11.58;100.00;101561.94;5013517;28;20042;-71
2022/10/28 06:08:24;;;;;;;18.63;11.05;;;;;;;11.55;100.00;101573.34;5005107;28;20018;-74
2022/10/28 06:10:51;;;;;;;23.75;11.85;;;;;;;11.53;100.00;101583.75;5004403;28;20062;-70
2022/10/28 06:13:17;;;;;;;22.33;11.90;;;;;;;11.56;100.00;101572.31;5005011;28;20151;-73
2022/10/28 06:15:42;;;;;;;23.85;12.82;;;;;;;11.54;100.00;101573.59;5003827;28;20380;-75
2022/10/28 06:18:07;;;;;;;22.80;11.32;;;;;;;11.55;100.00;101570.59;5005388;28;20732;-70
2022/10/28 06:20:32;;;;;;;21.92;11.77;;;;;;;11.56;100.00;101576.97;5003834;28;20112;-71
2022/10/28 06:22:58;;;;;;;22.15;11.57;;;;;;;11.55;100.00;101576.09;5005137;28;20480;-73
2022/10/28 06:25:24;;;;;;;20.52;12.57;;;;;;;11.57;100.00;101578.66;5005732;28;20128;-71
2022/10/28 06:27:57;;;;;;;26.52;12.90;;;;;;;11.60;100.00;101578.22;5003314;28;20145;-74
2022/10/28 06:30:24;;;;;;;24.90;12.70;;;;;;;11.57;100.00;101578.66;5008595;28;20117;-71
2022/10/28 06:32:50;;;;;;;29.02;13.23;;;;;;;11.60;100.00;101578.22;5001671;28;20168;-73
2022/10/28 06:35:16;;;;;;;23.27;11.75;;;;;;;11.63;100.00;101584.13;5009991;28;20116;-70
2022/10/28 06:37:41;;;;;;;21.85;11.63;;;;;;;11.64;100.00;101569.28;5009585;28;20432;-74
2022/10/28 06:40:07;;;;;;;21.17;11.93;;;;;;;11.64;100.00;101580.31;5004652;28;20073;-73
2022/10/28 06:42:32;;;;;;;28.70;12.45;;;;;;;11.69;100.00;101582.41;5006481;28;20028;-70
2022/10/28 06:44:57;;;;;;;26.88;13.20;;;;;;;11.72;100.00;101581.97;5007455;28;20392;-72
2022/10/28 06:47:23;;;;;;;26.52;12.68;;;;;;;11.75;100.00;101581.50;5009838;28;20041;-72
2022/10/28 06:49:48;;;;;;;23.33;11.55;;;;;;;11.76;100.00;101580.47;5010038;28;20040;-68
2022/10/28 06:52:13;;;;;;;23.27;11.82;;;;;;;11.84;100.00;101568.38;5010191;28;20037;-72
2022/10/28 06:54:39;;;;;;;20.20;11.60;;;;;;;11.82;100.00;101568.59;5008534;28;20112;-72
2022/10/28 06:57:04;;;;;;;26.38;12.75;;;;;;;11.87;100.00;101570.69;5007395;28;20030;-69
2022/10/28 06:59:29;;;;;;;25.23;12.98;;;;;;;11.86;100.00;101575.34;5007407;28;20077;-72
2022/10/28 07:01:54;;;;;;;23.63;11.38;;;;;;;11.90;100.00;101576.56;5009259;28;20030;-71
2022/10/28 07:04:20;;;;;;;25.35;11.95;;;;;;;11.95;100.00;101579.50;5012191;28;20028;-72
2022/10/28 07:06:45;;;;;;;23.92;12.60;;;;;;;11.97;100.00;101575.72;5008974;28;20045;-72
2022/10/28 07:09:13;;;;;;;23.95;12.05;;;;;;;12.07;100.00;101584.31;5007482;28;20032;-71
2022/10/28 07:11:39;;;;;;;25.23;11.27;;;;;;;12.13;100.00;101580.66;5002879;28;20052;-73
2022/10/28 07:14:04;;;;;;;23.73;12.45;;;;;;;12.16;100.00;101578.28;4998584;28;20030;-73
2022/10/28 07:16:29;;;;;;;30.02;12.55;;;;;;;12.20;100.00;101579.53;5002892;28;20072;-72
2022/10/28 07:18:55;;;;;;;28.42;12.48;;;;;;;12.29;100.00;101577.38;5008966;28;20495;-73
2022/10/28 07:21:23;;;;;;;28.42;12.88;;;;;;;12.37;100.00;101577.09;5016714;28;20029;-71
2022/10/28 07:23:48;;;;;;;;;;;;;;;12.55;100.00;101583.72;5007502;28;20381;-68
2022/10/28 07:26:13;;;;;;;29.13;13.50;;;;;;;12.65;100.00;101581.28;5009697;28;19913;-74
2022/10/28 07:28:39;;;;;;;27.00;13.85;;;;;;;12.74;100.00;101585.44;5008694;28;20026;-75
2022/10/28 07:31:04;;;;;;;31.23;12.95;;;;;;;12.85;100.00;101592.13;5008823;28;20040;-70
2022/10/28 07:33:29;;;;;;;31.90;14.48;;;;;;;12.99;100.00;101588.16;5021757;28;20037;-73
2022/10/28 07:35:55;;;;;;;31.45;14.48;;;;;;;13.20;100.00;101592.38;5012733;28;20473;-68
2022/10/28 07:38:21;;;;;;;38.20;14.80;;;;;;;13.44;100.00;101598.91;5018041;28;20022;-69
2022/10/28 07:40:46;;;;;;;38.35;15.73;;;;;;;13.59;100.00;101595.75;5006962;28;20041;-69
2022/10/28 07:43:11;;;;;;;28.40;13.98;;;;;;;13.74;100.00;101594.28;5007738;28;20603;-71
2022/10/28 07:45:37;;;;;;;30.77;14.43;;;;;;;13.95;100.00;101592.91;5009168;28;20034;-72
2022/10/28 07:48:03;;;;;;;33.80;14.27;;;;;;;14.17;100.00;101584.06;5007998;28;20396;-70
2022/10/28 07:50:29;;;;;;;34.97;14.30;;;;;;;14.30;100.00;101591.31;5013457;28;20060;-69
2022/10/28 07:52:54;;;;;;;36.15;14.93;;;;;;;14.45;100.00;101586.19;5007102;28;20476;-68
2022/10/28 07:55:20;;;;;;;31.58;15.43;;;;;;;14.62;100.00;101589.94;5008880;28;20037;-69
2022/10/28 07:57:45;;;;;;;30.95;13.02;;;;;;;14.76;100.00;101591.41;5008754;28;20029;-69
2022/10/28 08:00:11;;;;;;;35.63;15.25;;;;;;;14.91;100.00;101585.38;5009389;28;20112;-69
2022/10/28 08:02:36;;;;;;;32.35;15.65;;;;;;;15.07;100.00;101574.66;5012782;28;20083;-69
2022/10/28 08:05:02;;;;;;;35.03;15.50;;;;;;;15.24;100.00;101570.88;5009753;28;20050;-70
2022/10/28 08:07:27;;;;;;;31.92;14.63;;;;;;;15.44;100.00;101572.41;5008329;28;20037;-70
2022/10/28 08:09:52;;;;;;;36.55;15.02;;;;;;;15.64;100.00;101583.06;5008286;28;20030;-69
2022/10/28 08:12:18;;;;;;;35.70;14.27;;;;;;;15.82;100.00;101580.13;5001427;28;20154;-69
2022/10/28 08:14:43;;;;;;;38.92;15.32;;;;;;;16.06;100.00;101580.81;4989129;28;20044;-69
2022/10/28 08:17:09;;;;;;;36.10;14.57;;;;;;;16.30;100.00;101587.06;4988954;28;20026;-70
2022/10/28 08:19:34;;;;;;;34.63;15.05;;;;;;;16.61;99.08;101588.41;5003376;28;20038;-69
2022/10/28 08:22:01;;;;;;;29.83;13.80;;;;;;;16.84;97.50;101587.44;5008677;28;20488;-70
2022/10/28 08:24:26;;;;;;;40.20;14.20;;;;;;;16.98;95.53;101594.31;5007569;28;20018;-70
2022/10/28 08:26:52;;;;;;;37.67;14.48;;;;;;;17.06;94.69;101599.41;5007610;28;20485;-70
2022/10/28 08:29:17;;;;;;;40.53;14.48;;;;;;;17.35;93.38;101596.47;5001868;28;20038;-69
2022/10/28 08:31:42;;;;;;;32.05;14.13;;;;;;;17.58;91.31;101604.53;5017076;28;20065;-70
2022/10/28 08:34:08;;;;;;;33.55;14.38;;;;;;;17.53;92.46;101600.84;5005890;28;20033;-68
2022/10/28 08:36:34;;;;;;;40.35;13.80;;;;;;;17.42;92.54;101594.34;5008018;28;20492;-68
2022/10/28 08:39:00;;;;;;;40.30;15.25;;;;;;;17.36;92.83;101595.38;5007074;28;20061;-68
2022/10/28 08:41:28;;;;;;;39.33;15.07;;;;;;;17.45;92.73;101596.59;5007128;28;20500;-69
2022/10/28 08:44:09;;;;;;;39.72;15.35;;;;;;;17.67;91.86;101596.59;5006633;28;20030;-69
2022/10/28 08:47:10;;;;;;;34.25;14.23;;;;;;;18.13;89.91;101606.28;5028067;28;20059;-68
2022/10/28 08:49:39;;;;;;;37.15;14.43;;;;;;;18.92;85.99;101597.25;5013666;28;20129;-68
2022/10/28 08:52:32;;;;;;;36.28;13.50;;;;;;;19.75;83.81;101587.38;5006804;28;20137;-68
2022/10/28 08:55:05;;;;;;;32.58;13.07;;;;;;;21.06;76.88;101574.59;5011798;28;20071;-68
2022/10/28 08:57:48;;;;;;;35.95;12.95;;;;;;;22.11;74.85;101576.38;5014812;28;20064;-69
2022/10/28 09:00:32;;;;;;;39.72;13.68;;;;;;;22.96;69.23;101583.50;5006270;28;20037;-68
2022/10/28 09:03:07;;;;;;;39.45;12.82;;;;;;;22.80;68.41;101588.38;5004160;28;20036;-69
2022/10/28 09:05:32;;;;;;;38.78;13.25;;;;;;;22.27;66.82;101580.72;5020340;28;20376;-68
2022/10/28 09:07:59;;;;;;;40.08;13.00;;;;;;;21.70;68.72;101585.00;5005162;28;20040;-68
2022/10/28 09:10:44;;;;;;;31.05;12.07;;;;;;;21.24;72.62;101592.69;5008138;28;20030;-68
2022/10/28 09:13:22;;;;;;;37.08;12.80;;;;;;;20.58;74.02;101604.81;5007031;28;20029;-68
2022/10/28 09:15:59;;;;;;;;;;;;;;;20.51;78.04;101604.25;5008690;28;20022;-68
2022/10/28 09:18:48;;;;;;;40.55;13.65;;;;;;;20.20;76.03;101597.78;5005775;28;19914;-66
2022/10/28 09:21:43;;;;;;;40.53;13.55;;;;;;;20.28;78.42;101593.63;5012511;28;20073;-68
2022/10/28 09:24:40;;;;;;;36.22;13.57;;;;;;;20.65;76.50;101599.78;5007166;28;20116;-68
2022/10/28 09:27:31;;;;;;;33.65;11.98;;;;;;;21.56;72.36;101600.72;4992057;28;20038;-67
2022/10/28 09:30:21;;;;;;;37.67;13.57;;;;;;;22.71;69.94;101602.22;5007513;28;20041;-68
2022/10/28 09:32:53;;;;;;;33.15;12.52;;;;;;;23.46;65.12;101598.88;5005452;28;20064;-69
2022/10/28 09:35:23;;;;;;;34.65;11.43;;;;;;;23.30;63.85;101603.84;5007713;28;20346;-69
2022/10/28 09:37:56;;;;;;;33.53;12.30;;;;;;;22.65;65.30;101606.16;5006120;28;20034;-69
2022/10/28 09:40:25;;;;;;;34.00;11.18;;;;;;;22.01;69.26;101605.22;5005579;28;20127;-69
2022/10/28 09:43:08;;;;;;;32.60;11.15;;;;;;;21.49;69.90;101605.75;5004448;28;20076;-69
2022/10/28 09:45:39;;;;;;;32.35;10.88;;;;;;;21.32;70.83;101605.28;5006509;28;20025;-69
2022/10/28 09:48:15;;;;;;;26.00;9.85;;;;;;;21.45;71.93;101608.31;5014053;28;20057;-69
2022/10/28 09:50:43;;;;;;;28.30;9.15;;;;;;;21.55;70.35;101601.00;5005358;28;20033;-69
2022/10/28 09:53:35;;;;;;;26.50;8.77;;;;;;;22.72;70.21;101601.06;5004626;28;20363;-68
2022/10/28 09:56:02;;;;;;;29.45;9.60;;;;;;;24.24;62.95;101599.53;5006683;28;20022;-69
2022/10/28 09:58:27;;;;;;;22.50;8.70;;;;;;;25.16;57.85;101609.22;5000988;28;20056;-69
2022/10/28 10:00:53;;;;;;;27.92;8.30;;;;;;;25.51;55.73;101597.25;5006564;28;20025;-69
2022/10/28 10:03:18;;;;;;;25.00;8.27;;;;;;;25.37;54.74;101607.66;5005496;28;20472;-69
2022/10/28 10:05:47;;;;;;;25.30;8.98;;;;;;;25.20;54.60;101613.91;5013426;28;20049;-69
2022/10/28 10:08:16;;;;;;;32.30;7.43;;;;;;;25.16;54.48;101600.78;5027309;28;20284;-69
2022/10/28 10:10:59;;;;;;;23.15;7.47;;;;;;;25.34;55.79;101595.09;5029716;28;20076;-69
2022/10/28 10:13:33;;;;;;;21.88;8.00;;;;;;;25.04;55.13;101604.06;5030003;28;20033;-69
2022/10/28 10:16:04;;;;;;;24.77;7.30;;;;;;;24.72;55.06;101607.75;5020551;28;20033;-68
2022/10/28 10:18:34;;;;;;;23.02;7.30;;;;;;;24.34;56.14;101605.00;5009623;28;20038;-68
2022/10/28 10:21:00;;;;;;;22.92;7.18;;;;;;;24.81;55.96;101609.53;5012882;28;20059;-68
2022/10/28 10:23:34;;;;;;;18.02;6.78;;;;;;;25.19;55.26;101600.97;5020417;28;20474;-67
2022/10/28 10:26:10;;;;;;;23.80;7.53;;;;;;;25.40;52.84;101597.78;5001060;28;20048;-68
2022/10/28 10:28:41;;;;;;;21.17;7.18;;;;;;;25.63;52.66;101591.09;5010770;28;20427;-68
2022/10/28 10:31:14;;;;;;;22.58;6.80;;;;;;;25.95;52.52;101589.28;5010670;28;20033;-68
2022/10/28 10:33:40;;;;;;;25.52;7.45;;;;;;;25.83;52.01;101596.31;5014581;28;20036;-68
2022/10/28 10:36:08;;;;;;;25.08;6.88;;;;;;;25.31;52.92;101594.88;5010930;28;20022;-68
2022/10/28 10:38:35;;;;;;;20.98;6.63;;;;;;;24.70;54.20;101594.00;5009948;28;20041;-67
2022/10/28 10:41:00;;;;;;;19.95;7.72;;;;;;;24.82;54.39;101591.53;5010639;28;20058;-67
2022/10/28 10:43:33;;;;;;;19.90;6.55;;;;;;;24.73;55.02;101586.94;5009640;28;20117;-67
2022/10/28 10:46:14;;;;;;;19.48;7.00;;;;;;;24.78;55.64;101590.47;5010901;28;20389;-68
2022/10/28 10:48:39;;;;;;;16.40;5.90;;;;;;;24.82;53.19;101588.72;5010355;28;20030;-68
2022/10/28 10:51:24;;;;;;;19.90;6.15;;;;;;;25.32;53.09;101574.88;5008281;28;20029;-68
2022/10/28 10:53:52;;;;;;;19.10;6.18;;;;;;;25.54;51.62;101567.66;5006652;28;20145;-68
2022/10/28 10:56:25;;;;;;;;;;;;;;;26.17;52.95;101555.53;5010269;28;20018;-69
2022/10/28 10:58:52;;;;;;;20.48;5.95;;;;;;;25.94;50.63;101573.56;5009964;28;19967;-68
2022/10/28 11:01:21;;;;;;;16.80;6.03;;;;;;;25.51;51.45;101579.56;5010243;28;20022;-68
2022/10/28 11:03:57;;;;;;;18.70;5.60;;;;;;;25.38;53.28;101571.94;5016728;28;20029;-68
2022/10/28 11:06:29;;;;;;;14.43;5.78;;;;;;;25.51;52.18;101580.38;5021702;28;20103;-69
2022/10/28 11:09:01;;;;;;;18.90;5.47;;;;;;;26.10;51.03;101580.47;5028378;28;20053;-70
2022/10/28 11:11:39;;;;;;;20.55;5.60;;;;;;;26.20;49.54;101585.03;5028012;28;20048;-71
2022/10/28 11:14:07;;;;;;;20.05;5.43;;;;;;;26.31;48.53;101570.41;5028676;28;20038;-70
2022/10/28 11:16:45;;;;;;;15.40;6.60;;;;;;;26.06;48.81;101566.22;5026529;28;20033;-70